Time;durP1;ratioP1;P1;durP2;ratioP2;P2;SDS_P1;SDS_P2;PMS_P1;PMS_P2;Temp;Humidity;BMP_temperature;BMP_pressure;BME280_temperature;BME280_humidity;BME280_pressure;Samples;Min_cycle;Max_cycle;Signal;HPM_P1;HPM_P2
2023/09/29 00:00:22;;;;;;;6.65;5.93;;;16.30;99.90;;;-141.84;79.03;20498.81;4982920;28;20349;-64
2023/09/29 00:02:53;;;;;;;7.15;6.45;;;16.40;99.90;;;-141.84;79.10;20523.19;4984016;28;20221;-65
2023/09/29 00:05:22;;;;;;;7.18;6.18;;;16.30;99.90;;;-141.84;79.01;20521.16;4981632;28;20811;-64
2023/09/29 00:07:51;;;;;;;8.50;6.30;;;16.20;99.90;;;-141.84;78.87;20533.34;4980297;28;20231;-63
2023/09/29 00:10:21;;;;;;;7.13;5.55;;;16.30;99.90;;;-141.84;78.93;20537.44;4983096;28;20282;-63
2023/09/29 00:12:51;;;;;;;8.27;6.47;;;16.30;99.90;;;-141.84;78.96;20523.19;4983396;28;20223;-64
2023/09/29 00:15:22;;;;;;;8.35;5.97;;;16.30;99.90;;;-141.84;78.85;20513.03;4982652;28;20701;-63
2023/09/29 00:17:51;;;;;;;10.57;6.50;;;16.30;99.90;;;-141.84;79.08;20533.34;4983622;28;20654;-63
2023/09/29 00:20:23;;;;;;;6.93;6.22;;;16.20;99.90;;;-141.84;79.31;20519.13;4982551;28;20238;-63
2023/09/29 00:22:53;;;;;;;6.75;6.05;;;16.30;99.90;;;-141.84;79.54;20535.41;4982877;28;20735;-64
2023/09/29 00:25:23;;;;;;;7.13;6.20;;;16.20;99.90;;;-141.84;79.35;20511.00;4981076;28;20245;-62
2023/09/29 00:27:52;;;;;;;6.45;5.85;;;16.20;99.90;;;-141.84;79.54;20494.75;4982633;28;20246;-64
2023/09/29 00:30:22;;;;;;;6.35;5.75;;;16.20;99.90;;;-141.84;79.75;20484.56;4982834;28;20290;-64
2023/09/29 00:32:53;;;;;;;7.35;6.13;;;16.20;99.90;;;-141.84;79.80;20515.06;4983495;28;20205;-63
2023/09/29 00:35:27;;;;;;;7.43;6.30;;;16.20;99.90;;;-141.84;79.00;20515.06;4981339;28;20281;-64
2023/09/29 00:37:58;;;;;;;6.50;5.90;;;16.20;99.90;;;-141.84;79.30;20504.91;4983116;28;20722;-64
2023/09/29 00:40:28;;;;;;;7.30;5.97;;;16.20;99.90;;;-141.84;79.72;20484.56;4982672;28;20235;-63
2023/09/29 00:42:58;;;;;;;8.27;6.57;;;16.20;99.90;;;-141.84;78.06;20547.59;4982949;28;20315;-64
2023/09/29 00:45:29;;;;;;;7.63;6.40;;;16.20;99.90;;;-141.84;78.52;20513.03;4975485;28;20330;-63
2023/09/29 00:48:06;;;;;;;9.23;7.10;;;16.20;99.90;;;-141.84;78.22;20523.19;4982898;28;20211;-63
2023/09/29 00:50:35;;;;;;;6.40;5.80;;;16.20;99.90;;;-141.84;78.27;20517.09;4982796;28;20231;-63
2023/09/29 00:53:08;;;;;;;7.85;6.60;;;16.20;99.90;;;-141.84;78.92;20490.66;4982882;28;20297;-64
2023/09/29 00:55:37;;;;;;;6.90;6.20;;;16.20;99.90;;;-141.84;78.85;20496.78;4975340;28;20235;-63
2023/09/29 00:58:06;;;;;;;8.90;6.97;;;16.20;99.90;;;-141.84;78.28;20506.94;4983397;28;20295;-64
2023/09/29 01:00:40;;;;;;;7.63;6.82;;;16.20;99.90;;;-141.84;78.59;20474.41;4982921;28;20226;-64
2023/09/29 01:03:13;;;;;;;7.93;6.43;;;16.20;99.90;;;-141.84;78.59;20506.94;4982559;28;20212;-64
2023/09/29 01:05:44;;;;;;;8.93;6.40;;;16.20;99.90;;;-141.84;77.77;20519.13;4975568;28;20711;-64
2023/09/29 01:08:16;;;;;;;8.40;6.70;;;16.20;99.90;;;-141.84;77.53;20521.16;4982673;28;20258;-64
2023/09/29 01:10:45;;;;;;;9.38;6.60;;;16.20;99.90;;;-141.84;78.61;20521.16;4982672;28;20226;-64
2023/09/29 01:13:13;;;;;;;7.25;6.38;;;16.20;99.90;;;-141.84;78.52;20470.34;4963951;28;20315;-63
2023/09/29 01:15:43;;;;;;;7.28;6.60;;;16.20;99.90;;;-141.84;78.94;20484.56;4956455;28;20236;-64
2023/09/29 01:18:12;;;;;;;9.25;6.20;;;16.10;99.90;;;-141.84;79.19;20482.53;4979183;28;20207;-62
2023/09/29 01:20:41;;;;;;;8.35;6.97;;;16.10;99.90;;;-141.84;79.49;20466.28;4982870;28;20219;-64
2023/09/29 01:23:10;;;;;;;8.30;6.20;;;16.10;99.90;;;-141.84;79.77;20460.19;4982772;28;20737;-64
2023/09/29 01:25:40;;;;;;;7.07;6.47;;;16.00;99.90;;;-141.84;79.95;20466.28;4974845;28;20305;-63
2023/09/29 01:28:10;;;;;;;6.88;6.18;;;15.90;99.90;;;-141.84;80.41;20466.28;4982538;28;20231;-64
2023/09/29 01:30:40;;;;;;;7.00;6.30;;;15.90;99.90;;;-141.84;80.44;20403.25;4982412;28;20235;-64
2023/09/29 01:33:09;;;;;;;8.43;6.53;;;15.90;99.90;;;-141.84;80.55;20395.13;4982604;28;20259;-63
2023/09/29 01:35:39;;;;;;;7.68;6.88;;;15.80;99.90;;;-141.84;80.84;20423.59;4975179;28;20496;-63
2023/09/29 01:38:08;;;;;;;7.20;6.60;;;15.80;99.90;;;-141.84;80.55;20433.75;4983820;28;20245;-64
2023/09/29 01:40:36;;;;;;;10.30;7.80;;;15.80;99.90;;;-141.84;80.32;20431.72;4985984;28;20270;-65
2023/09/29 01:43:06;;;;;;;6.97;6.28;;;15.80;99.90;;;-141.84;80.26;20415.47;4986400;28;20239;-63
2023/09/29 01:45:34;;;;;;;6.95;6.35;;;15.80;99.90;;;-141.84;80.71;20391.06;4978502;28;20833;-65
2023/09/29 01:48:02;;;;;;;9.10;7.00;;;15.70;99.90;;;-141.84;80.83;20395.13;4985995;28;20207;-64
2023/09/29 01:50:32;;;;;;;7.93;7.03;;;15.70;99.90;;;-141.84;80.05;20423.59;4985730;28;20521;-64
2023/09/29 01:53:02;;;;;;;8.50;6.90;;;15.80;99.90;;;-141.84;80.21;20439.84;4985903;28;20231;-63
2023/09/29 01:55:31;;;;;;;9.35;6.75;;;15.80;99.90;;;-141.84;80.67;20374.81;4977810;28;20782;-64
2023/09/29 01:58:00;;;;;;;7.72;6.90;;;15.80;99.90;;;-141.84;80.44;20407.34;4985813;28;20319;-63
2023/09/29 02:00:30;;;;;;;9.95;7.28;;;15.80;99.90;;;-141.84;80.56;20395.13;4985702;28;20254;-64
2023/09/29 02:03:00;;;;;;;8.75;6.88;;;15.70;99.90;;;-141.84;80.02;20374.81;4985738;28;20322;-65
2023/09/29 02:05:28;;;;;;;9.05;6.70;;;15.70;99.90;;;-141.84;80.09;20413.44;4978144;28;20710;-62
2023/09/29 02:07:59;;;;;;;7.22;6.35;;;15.70;99.90;;;-141.84;80.90;20358.56;4985381;28;20254;-64
2023/09/29 02:10:28;;;;;;;10.13;6.57;;;15.70;99.90;;;-141.84;81.10;20417.50;4985041;28;20239;-63
2023/09/29 02:12:58;;;;;;;7.63;6.82;;;15.60;99.90;;;-141.84;80.84;20380.91;4968639;28;20525;-66
2023/09/29 02:15:29;;;;;;;7.70;6.35;;;15.60;99.90;;;-141.84;81.40;20376.84;4958993;28;20247;-63
2023/09/29 02:17:57;;;;;;;8.45;6.95;;;15.60;99.90;;;-141.84;81.69;20387.00;4980684;28;20207;-63
2023/09/29 02:20:29;;;;;;;7.90;7.10;;;15.60;99.90;;;-141.84;82.23;20326.03;4985392;28;20231;-64
2023/09/29 02:23:00;;;;;;;7.85;7.10;;;15.50;99.90;;;-141.84;82.06;20338.22;4985165;28;20239;-64
2023/09/29 02:25:29;;;;;;;8.30;7.30;;;15.50;99.90;;;-141.84;82.18;20366.69;4977370;28;20262;-65
2023/09/29 02:28:00;;;;;;;7.78;6.82;;;15.50;99.90;;;-141.84;82.00;20391.06;4985372;28;20242;-63
2023/09/29 02:30:30;;;;;;;10.35;7.38;;;15.50;99.90;;;-141.84;81.77;20399.19;4985078;28;20230;-64
2023/09/29 02:32:59;;;;;;;8.65;6.63;;;15.40;99.90;;;-141.84;81.65;20352.44;4985402;28;20211;-63
2023/09/29 02:35:28;;;;;;;8.88;6.72;;;15.50;99.90;;;-141.84;81.79;20362.63;4977764;28;20745;-64
2023/09/29 02:37:56;;;;;;;7.35;6.65;;;15.50;99.90;;;-141.84;81.87;20368.72;4984622;28;20646;-65
2023/09/29 02:40:25;;;;;;;7.90;6.93;;;15.50;99.90;;;-141.84;82.19;20321.97;4984488;28;20734;-64
2023/09/29 02:42:53;;;;;;;7.13;6.43;;;15.50;99.90;;;-141.84;82.37;20326.03;4984961;28;20235;-63
2023/09/29 02:45:24;;;;;;;7.32;6.60;;;15.40;99.90;;;-141.84;82.26;20289.44;4982838;28;20208;-64
2023/09/29 02:47:54;;;;;;;7.53;6.57;;;15.50;99.90;;;-141.84;82.21;20303.66;4985233;28;20207;-64
2023/09/29 02:50:24;;;;;;;7.57;6.88;;;15.50;99.90;;;-141.84;81.38;20332.13;4983807;28;20346;-64
2023/09/29 02:52:53;;;;;;;8.73;6.40;;;15.50;99.90;;;-141.84;81.34;20338.22;4984641;28;20322;-65
2023/09/29 02:55:23;;;;;;;7.70;6.55;;;15.50;99.90;;;-141.84;81.75;20336.19;4982569;28;20235;-63
2023/09/29 02:57:52;;;;;;;6.97;5.95;;;15.40;99.90;;;-141.84;81.61;20340.25;4984361;28;20250;-63
2023/09/29 03:00:23;;;;;;;8.07;6.60;;;15.40;99.90;;;-141.84;81.66;20311.78;4984649;28;20235;-64
2023/09/29 03:02:52;;;;;;;7.82;6.63;;;15.50;99.90;;;-141.84;82.09;20317.91;4984891;28;20203;-63
2023/09/29 03:05:23;;;;;;;7.40;6.68;;;15.40;99.90;;;-141.84;81.36;20358.56;4984335;28;20322;-64
2023/09/29 03:07:55;;;;;;;7.90;6.53;;;15.50;99.90;;;-141.84;81.50;20324.00;4984172;28;20620;-63
2023/09/29 03:10:26;;;;;;;7.68;6.88;;;15.40;99.90;;;-141.84;81.40;20295.53;4984297;28;20333;-64
2023/09/29 03:12:56;;;;;;;7.72;6.18;;;15.40;99.90;;;-141.84;81.04;20319.94;4967368;28;20723;-64
2023/09/29 03:15:26;;;;;;;8.63;6.90;;;15.40;99.90;;;-141.84;80.92;20342.28;4957639;28;20208;-63
2023/09/29 03:17:56;;;;;;;7.65;6.85;;;15.50;99.90;;;-141.84;81.04;20297.56;4979340;28;20270;-63
2023/09/29 03:20:29;;;;;;;7.53;6.82;;;15.40;99.90;;;-141.84;81.23;20346.34;4984012;28;20793;-65
2023/09/29 03:23:00;;;;;;;8.30;7.13;;;15.40;99.90;;;-141.84;81.71;20305.69;4983963;28;20231;-64
2023/09/29 03:25:29;;;;;;;8.63;6.80;;;15.40;99.90;;;-141.84;82.37;20256.91;4976656;28;20230;-64
2023/09/29 03:27:59;;;;;;;8.68;7.07;;;15.30;99.90;;;-141.84;82.60;20291.47;4983994;28;20226;-64
2023/09/29 03:30:27;;;;;;;8.93;6.65;;;15.30;99.90;;;-141.84;82.66;20256.91;4983693;28;20239;-64
2023/09/29 03:32:57;;;;;;;7.57;6.78;;;15.20;99.90;;;-141.84;82.83;20258.94;4984983;28;20263;-63
2023/09/29 03:35:25;;;;;;;7.78;6.95;;;15.20;99.90;;;-141.84;82.90;20265.03;4976696;28;20781;-66
2023/09/29 03:37:55;;;;;;;7.88;7.07;;;15.20;99.90;;;-141.84;82.60;20263.00;4983760;28;20231;-64
2023/09/29 03:40:24;;;;;;;7.40;6.70;;;15.20;99.90;;;-141.84;81.99;20311.78;4984351;28;20320;-64
2023/09/29 03:42:53;;;;;;;9.32;7.40;;;15.20;99.90;;;-141.84;81.40;20317.91;4983625;28;20295;-63
2023/09/29 03:45:21;;;;;;;8.90;7.15;;;15.30;99.90;;;-141.84;80.38;20358.56;4982265;28;20731;-63
2023/09/29 03:47:49;;;;;;;7.55;6.75;;;15.40;99.90;;;-141.84;81.14;20305.69;4981898;28;20242;-64
2023/09/29 03:50:19;;;;;;;7.82;7.05;;;15.40;99.90;;;-141.84;81.88;20289.44;4983861;28;20234;-65
2023/09/29 03:52:47;;;;;;;8.00;7.20;;;15.30;99.90;;;-141.84;82.17;20291.47;4983892;28;20223;-64
2023/09/29 03:55:17;;;;;;;9.18;7.68;;;15.30;99.90;;;-141.84;81.99;20313.84;4983656;28;20311;-65
2023/09/29 03:57:45;;;;;;;9.73;7.50;;;15.30;99.90;;;-141.84;81.59;20289.44;4975928;28;20238;-63
2023/09/29 04:00:18;;;;;;;7.22;6.55;;;15.30;99.90;;;-141.84;82.30;20303.66;4983175;28;20267;-64
2023/09/29 04:02:49;;;;;;;7.78;6.97;;;15.20;99.90;;;-141.84;82.92;20246.75;4984542;28;20258;-64
2023/09/29 04:05:19;;;;;;;8.63;7.55;;;15.20;99.90;;;-141.84;82.99;20260.97;4983938;28;20653;-64
2023/09/29 04:07:47;;;;;;;9.10;7.10;;;15.20;99.90;;;-141.84;83.24;20248.78;4978786;28;20267;-65
2023/09/29 04:10:17;;;;;;;9.32;7.38;;;15.20;99.90;;;-141.84;81.96;20295.53;4983469;28;20305;-64
2023/09/29 04:12:47;;;;;;;9.73;7.45;;;15.20;99.90;;;-141.84;80.96;20321.97;4968573;28;20232;-63
2023/09/29 04:15:15;;;;;;;8.05;7.25;;;15.30;99.90;;;-141.84;82.07;20263.00;4964237;28;20684;-64
2023/09/29 04:17:44;;;;;;;7.30;6.60;;;15.20;99.90;;;-141.84;82.60;20252.84;4970266;28;20308;-65
2023/09/29 04:20:13;;;;;;;8.65;7.57;;;15.20;99.90;;;-141.84;82.90;20277.25;4983841;28;20235;-63
2023/09/29 04:22:42;;;;;;;11.05;7.78;;;15.30;99.90;;;-141.84;81.25;20321.97;4983301;28;20229;-63
2023/09/29 04:25:11;;;;;;;8.95;7.72;;;15.30;99.90;;;-141.84;81.15;20303.66;4982920;28;20223;-63
2023/09/29 04:27:41;;;;;;;8.05;7.25;;;15.30;99.90;;;-141.84;82.29;20263.00;4976193;28;20307;-64
2023/09/29 04:30:12;;;;;;;8.15;7.45;;;15.20;99.90;;;-141.84;83.04;20269.13;4982726;28;20222;-64
2023/09/29 04:32:41;;;;;;;9.10;7.93;;;15.20;99.90;;;-141.84;83.05;20263.00;4984270;28;20208;-63
2023/09/29 04:35:10;;;;;;;8.32;7.47;;;15.10;99.90;;;-141.84;83.47;20254.88;4983518;28;20235;-64
2023/09/29 04:37:38;;;;;;;11.02;7.82;;;15.10;99.90;;;-141.84;83.50;20230.50;4975356;28;20601;-63
2023/09/29 04:40:08;;;;;;;10.38;8.07;;;15.10;99.90;;;-141.84;82.04;20260.97;4983202;28;20262;-63
2023/09/29 04:42:37;;;;;;;8.95;8.15;;;15.10;99.90;;;-141.84;81.41;20297.56;4983008;28;20524;-64
2023/09/29 04:45:09;;;;;;;8.32;7.53;;;15.20;99.90;;;-141.84;81.33;20289.44;4983475;28;20601;-63
2023/09/29 04:47:38;;;;;;;9.40;7.63;;;15.20;99.90;;;-141.84;82.34;20248.78;4977445;28;20223;-63
2023/09/29 04:50:11;;;;;;;8.82;7.47;;;15.30;99.90;;;-141.84;82.80;20265.03;4983741;28;20243;-64
2023/09/29 04:52:39;;;;;;;8.20;7.32;;;15.30;99.90;;;-141.84;81.94;20326.03;4981961;28;20239;-63
2023/09/29 04:55:09;;;;;;;9.35;7.85;;;15.30;99.90;;;-141.84;81.50;20334.16;4982141;28;20250;-63
2023/09/29 04:57:37;;;;;;;8.82;7.95;;;15.40;99.90;;;-141.84;81.38;20330.09;4964168;28;20355;-64
2023/09/29 05:00:09;;;;;;;9.15;8.35;;;15.50;99.90;;;-141.84;81.46;20326.03;4964173;28;20716;-63
2023/09/29 05:02:37;;;;;;;9.88;7.68;;;15.50;99.90;;;-141.84;81.21;20311.78;4963664;28;20326;-64
2023/09/29 05:05:07;;;;;;;9.85;8.20;;;15.50;99.90;;;-141.84;80.25;20374.81;4963651;28;20264;-64
2023/09/29 05:07:36;;;;;;;10.73;7.70;;;15.60;99.90;;;-141.84;79.63;20415.47;4956018;28;20302;-64
2023/09/29 05:10:06;;;;;;;8.65;7.85;;;15.80;99.90;;;-141.84;78.88;20405.31;4961127;28;20237;-64
2023/09/29 05:12:37;;;;;;;9.02;8.00;;;15.80;99.90;;;-141.84;78.79;20378.88;4984835;28;20243;-65
2023/09/29 05:15:09;;;;;;;8.90;7.53;;;15.80;99.90;;;-141.84;79.11;20437.81;4986696;28;20240;-64
2023/09/29 05:17:37;;;;;;;11.63;7.50;;;15.80;99.90;;;-141.84;80.16;20356.50;4978863;28;20704;-64
2023/09/29 05:20:19;;;;;;;12.43;8.48;;;;;;;-141.84;80.02;20391.06;4997778;28;20269;-64
2023/09/29 05:22:48;;;;;;;8.75;7.85;;;;;;;-141.84;79.67;20431.72;4990831;28;20234;-63
2023/09/29 05:25:16;;;;;;;8.07;7.28;;;;;;;-141.84;79.98;20378.88;4986653;28;20308;-64
2023/09/29 05:27:45;;;;;;;8.73;7.50;;;;;;;-141.84;80.53;20382.94;4977730;28;20263;-64
2023/09/29 05:30:19;;;;;;;8.57;7.30;;;;;;;-141.84;80.94;20368.72;4984718;28;20208;-64
2023/09/29 05:32:47;;;;;;;10.27;7.55;;;;;;;-141.84;81.11;20372.78;4986429;28;20354;-62
2023/09/29 05:35:16;;;;;;;7.72;6.82;;;;;;;-141.84;80.99;20382.94;4985002;28;20297;-64
2023/09/29 05:37:44;;;;;;;9.98;7.55;;;;;;;-141.84;80.83;20382.94;4979265;28;20314;-64
2023/09/29 05:40:13;;;;;;;7.75;7.00;;;;;;;-141.84;80.67;20389.03;4986572;28;20235;-65
2023/09/29 05:42:43;;;;;;;8.77;7.78;;;15.90;99.90;;;-141.84;80.55;20354.47;4986133;28;20235;-63
2023/09/29 05:45:22;;;;;;;7.90;7.13;;;15.90;99.90;;;-141.84;79.82;20403.25;4985878;28;20583;-63
2023/09/29 05:47:51;;;;;;;9.68;7.95;;;16.20;99.90;;;-141.84;79.35;20445.94;4984403;28;20314;-63
2023/09/29 05:50:21;;;;;;;8.48;7.50;;;16.10;99.90;;;-141.84;78.03;20452.06;4998184;28;20234;-63
2023/09/29 05:52:49;;;;;;;7.50;6.80;;;16.20;99.90;;;-141.84;78.54;20458.16;4989798;28;20291;-64
2023/09/29 05:55:36;;;;;;;9.23;7.45;;;16.30;99.90;;;-141.84;77.53;20506.94;4978118;28;20470;-64
2023/09/29 05:58:05;;;;;;;7.90;7.10;;;16.40;99.90;;;-141.84;77.25;20494.75;4986284;28;20309;-63
2023/09/29 06:00:35;;;;;;;7.55;6.45;;;16.50;99.90;;;-141.84;77.19;20535.41;4985608;28;20298;-63
2023/09/29 06:03:03;;;;;;;9.00;7.15;;;16.60;99.90;;;-141.84;76.74;20578.09;4985643;28;20266;-63
2023/09/29 06:05:32;;;;;;;7.53;6.50;;;16.70;99.90;;;-141.84;76.44;20602.47;4978541;28;20234;-64
2023/09/29 06:08:00;;;;;;;8.95;7.32;;;16.90;99.90;;;-141.84;75.94;20655.31;4986160;28;20235;-64
2023/09/29 06:10:29;;;;;;;8.13;7.22;;;17.10;99.90;;;-141.84;75.03;20695.97;4985069;28;20722;-64
2023/09/29 06:12:57;;;;;;;11.05;7.82;;;17.20;99.90;;;-141.84;74.80;20637.03;4968620;28;20306;-64
2023/09/29 06:15:25;;;;;;;8.07;6.55;;;17.30;99.90;;;-141.84;74.85;20687.84;4963620;28;20215;-65
2023/09/29 06:17:56;;;;;;;7.53;6.72;;;17.30;99.90;;;-141.84;73.62;20689.88;4985819;28;20689;-63
2023/09/29 06:20:24;;;;;;;7.57;6.85;;;17.40;99.90;;;-141.84;73.86;20712.25;4997715;28;20328;-64
2023/09/29 06:22:52;;;;;;;9.13;7.57;;;17.50;99.90;;;-141.84;73.61;20748.84;5005580;28;20234;-64
2023/09/29 06:25:21;;;;;;;7.43;6.80;;;17.50;99.90;;;-141.84;72.92;20730.53;5003767;28;20242;-65
2023/09/29 06:27:49;;;;;;;10.70;7.60;;;17.60;99.90;;;-141.84;72.30;20809.81;5001011;28;20608;-63
2023/09/29 06:30:17;;;;;;;9.00;7.07;;;17.60;99.90;;;-141.84;72.43;20736.63;5004856;28;20641;-64
2023/09/29 06:32:45;;;;;;;6.88;6.20;;;17.60;99.90;;;-141.84;72.95;20722.41;5004986;28;20227;-63
2023/09/29 06:35:16;;;;;;;6.70;5.82;;;17.70;99.90;;;-141.84;73.11;20775.25;5004939;28;20273;-63
2023/09/29 06:37:44;;;;;;;7.28;6.57;;;17.70;99.90;;;-141.84;73.25;20748.84;4987882;28;20313;-64
2023/09/29 06:40:13;;;;;;;8.25;6.97;;;17.70;99.90;;;-141.84;73.11;20787.47;4985753;28;20285;-65
2023/09/29 06:42:41;;;;;;;7.30;6.38;;;17.80;99.90;;;-141.84;72.92;20783.41;4985266;28;20239;-63
2023/09/29 06:45:10;;;;;;;6.28;5.72;;;17.80;99.90;;;-141.84;72.31;20862.69;4984839;28;20242;-64
2023/09/29 06:47:38;;;;;;;8.85;7.03;;;18.00;99.90;;;-141.84;71.15;20872.84;4977591;28;20311;-63
2023/09/29 06:50:10;;;;;;;9.75;7.00;;;18.10;99.90;;;-141.84;70.94;20874.88;4994962;28;20285;-64
2023/09/29 06:52:40;;;;;;;9.02;6.75;;;18.20;99.90;;;-141.84;69.96;20931.78;5005047;28;20248;-64
2023/09/29 06:55:09;;;;;;;7.43;6.65;;;18.30;99.90;;;-141.84;68.48;20958.22;5004977;28;20231;-63
2023/09/29 06:57:37;;;;;;;8.48;6.68;;;18.40;99.90;;;-141.84;68.17;20996.84;4996845;28;20277;-64
2023/09/29 07:00:08;;;;;;;8.23;6.50;;;18.50;99.90;;;-141.84;68.08;21002.94;5004751;28;20222;-64
2023/09/29 07:02:37;;;;;;;8.25;6.00;;;18.60;99.90;;;-141.84;68.22;21002.94;5004369;28;20741;-64
2023/09/29 07:05:10;;;;;;;9.45;7.15;;;18.60;99.90;;;-141.84;67.71;21049.72;5004359;28;20257;-65
2023/09/29 07:07:39;;;;;;;7.68;7.05;;;18.70;99.90;;;-141.84;67.29;21061.91;4996836;28;20285;-64
2023/09/29 07:10:09;;;;;;;8.70;6.68;;;18.80;99.90;;;-141.84;66.12;21057.84;5004572;28;20242;-63
2023/09/29 07:12:37;;;;;;;7.25;6.10;;;18.90;99.90;;;-141.84;66.50;21114.75;4974684;28;20703;-63
2023/09/29 07:15:07;;;;;;;6.70;5.70;;;19.10;99.90;;;-141.84;66.26;21147.28;4978735;28;20679;-65
2023/09/29 07:17:35;;;;;;;7.65;6.40;;;19.20;99.90;;;-141.84;65.30;21218.44;4976424;28;20215;-65
2023/09/29 07:20:04;;;;;;;8.88;7.22;;;19.30;99.90;;;-141.84;64.81;21206.25;4994276;28;20230;-65
2023/09/29 07:22:32;;;;;;;8.02;6.10;;;19.40;99.90;;;-141.84;64.81;21255.03;5004451;28;20223;-63
2023/09/29 07:25:02;;;;;;;10.43;6.50;;;19.40;99.90;;;-141.84;64.69;21255.03;5003255;28;20235;-64
2023/09/29 07:27:31;;;;;;;6.25;5.75;;;19.60;99.90;;;-141.84;64.36;21309.94;4996854;28;20257;-65
2023/09/29 07:30:00;;;;;;;7.25;6.55;;;19.80;99.90;;;-141.84;63.21;21395.34;4985107;28;20211;-64
2023/09/29 07:32:28;;;;;;;7.53;5.75;;;20.00;99.90;;;-141.84;62.91;21401.44;4964520;28;20224;-64
2023/09/29 07:34:56;;;;;;;7.03;5.90;;;20.20;99.90;;;-141.84;61.65;21454.28;4964209;28;20227;-64
2023/09/29 07:37:24;;;;;;;7.18;6.55;;;20.30;99.90;;;-141.84;61.26;21476.66;4965190;28;20265;-64
2023/09/29 07:39:52;;;;;;;7.15;6.07;;;20.30;99.90;;;-141.84;61.55;21464.47;4983374;28;20329;-63
2023/09/29 07:42:22;;;;;;;6.32;5.70;;;20.30;99.90;;;-141.84;61.36;21460.41;4982110;28;20215;-62
2023/09/29 07:44:50;;;;;;;6.82;5.93;;;20.40;99.90;;;-141.84;61.55;21462.44;4983596;28;20758;-65
2023/09/29 07:47:18;;;;;;;5.82;5.32;;;20.30;99.90;;;-141.84;61.76;21464.47;4982808;28;20235;-65
2023/09/29 07:49:47;;;;;;;7.10;5.95;;;20.30;99.90;;;-141.84;62.27;21466.50;4985143;28;20330;-65
2023/09/29 07:52:15;;;;;;;5.85;5.28;;;20.40;99.90;;;-141.84;62.23;21484.78;4995472;28;20707;-65
2023/09/29 07:54:43;;;;;;;6.63;5.90;;;20.50;99.90;;;-141.84;61.81;21551.91;4983641;28;20668;-65
2023/09/29 07:57:11;;;;;;;10.05;6.15;;;20.60;99.90;;;-141.84;61.25;21562.06;4983254;28;20222;-64
2023/09/29 07:59:41;;;;;;;6.80;5.63;;;20.60;99.90;;;-141.84;60.84;21543.75;4976117;28;20733;-64
2023/09/29 08:02:10;;;;;;;6.32;5.70;;;20.60;99.90;;;-141.84;60.85;21558.00;4983734;28;20711;-65
2023/09/29 08:04:38;;;;;;;6.53;5.88;;;20.80;99.90;;;-141.84;60.54;21580.34;4981284;28;20648;-65
2023/09/29 08:07:07;;;;;;;8.07;6.25;;;20.80;99.90;;;-141.84;60.09;21621.03;4973896;28;20242;-63
2023/09/29 08:09:36;;;;;;;6.65;6.00;;;20.90;99.90;;;-141.84;59.47;21637.28;4977109;28;20219;-64
2023/09/29 08:12:05;;;;;;;9.25;5.53;;;21.00;99.90;;;-141.84;59.83;21651.53;4977675;28;20277;-64
2023/09/29 08:14:33;;;;;;;5.90;4.90;;;21.10;99.90;;;-141.84;59.91;21637.28;4976462;28;20227;-63
2023/09/29 08:17:03;;;;;;;6.90;5.65;;;21.20;99.90;;;-141.84;59.78;21677.97;4975686;28;20330;-62
2023/09/29 08:19:31;;;;;;;5.78;5.18;;;21.30;99.90;;;-141.84;59.59;21682.03;4988134;28;20289;-63
2023/09/29 08:21:59;;;;;;;5.93;5.40;;;21.20;99.90;;;-141.84;59.82;21667.78;4985501;28;20251;-64
2023/09/29 08:24:28;;;;;;;6.70;5.60;;;21.20;99.90;;;-141.84;59.69;21659.66;4978243;28;20196;-63
2023/09/29 08:26:56;;;;;;;6.32;5.05;;;21.30;99.90;;;-141.84;59.99;21645.44;4975323;28;20227;-63
2023/09/29 08:29:25;;;;;;;6.07;5.00;;;21.20;99.90;;;-141.84;60.16;21625.09;4983046;28;20231;-60
2023/09/29 08:31:54;;;;;;;6.00;5.22;;;21.20;99.90;;;-141.84;60.21;21651.53;4983154;28;20298;-60
2023/09/29 08:34:24;;;;;;;5.25;4.75;;;21.10;99.90;;;-141.84;59.90;21645.44;4983498;28;20319;-60
2023/09/29 08:36:53;;;;;;;8.18;5.57;;;21.10;99.90;;;-141.84;60.42;21619.00;4975364;28;20606;-62
2023/09/29 08:39:21;;;;;;;6.15;4.85;;;21.10;99.90;;;-141.84;60.02;21659.66;4983320;28;20246;-61
2023/09/29 08:42:00;;;;;;;6.05;5.05;;;21.20;99.90;;;-141.84;59.66;21716.59;4974963;28;20223;-61
2023/09/29 08:44:28;;;;;;;6.22;4.70;;;21.20;99.90;;;-141.84;58.97;21743.03;4983466;28;20226;-62
2023/09/29 08:47:01;;;;;;;7.07;5.30;;;21.40;99.90;;;-141.84;58.30;21783.69;4976099;28;20235;-61
2023/09/29 08:49:33;;;;;;;8.15;5.78;;;21.60;99.90;;;-141.84;57.83;21818.25;4992160;28;20764;-62
2023/09/29 08:52:07;;;;;;;6.18;5.10;;;21.70;99.90;;;-141.84;57.10;21877.22;5009805;28;20229;-61
2023/09/29 08:54:36;;;;;;;5.55;4.72;;;21.90;99.90;;;-141.84;56.11;21968.72;5005984;28;20258;-61
2023/09/29 08:57:06;;;;;;;6.13;5.18;;;22.20;99.90;;;-141.84;54.64;22009.41;4999347;28;20804;-67
2023/09/29 08:59:36;;;;;;;5.93;4.65;;;22.40;99.90;;;-141.84;54.29;22139.56;5005716;28;20713;-67
2023/09/29 09:02:04;;;;;;;8.90;4.70;;;22.60;99.90;;;-141.84;54.22;22080.56;5006842;28;20234;-61
2023/09/29 09:04:34;;;;;;;6.30;4.85;;;22.80;99.90;;;-141.84;54.30;22125.31;5006709;28;20230;-61
2023/09/29 09:07:03;;;;;;;6.15;4.78;;;22.90;99.90;;;-141.84;52.91;22170.06;4989075;28;20707;-62
2023/09/29 09:09:32;;;;;;;5.95;5.05;;;23.00;99.90;;;-141.84;52.73;22214.78;4986615;28;20238;-59
2023/09/29 09:12:00;;;;;;;5.40;4.90;;;23.00;99.90;;;-141.84;53.03;22212.75;4986391;28;20210;-61
2023/09/29 09:14:41;;;;;;;7.55;4.95;;;23.20;99.90;;;-141.84;52.96;22245.28;4977901;28;20318;-60
2023/09/29 09:17:10;;;;;;;5.82;4.45;;;23.20;99.90;;;-141.84;52.16;22310.38;4964135;28;20245;-61
2023/09/29 09:19:45;;;;;;;8.68;4.88;;;23.40;99.90;;;-141.84;52.22;22308.34;4993253;28;20325;-59
2023/09/29 09:22:16;;;;;;;6.82;5.00;;;23.40;99.90;;;-141.84;52.02;22322.56;5006057;28;20229;-59
2023/09/29 09:24:51;;;;;;;5.53;4.97;;;23.50;99.90;;;-141.84;50.73;22440.53;4998482;28;20297;-61
2023/09/29 09:27:19;;;;;;;6.65;4.90;;;23.70;99.90;;;-141.84;51.31;22408.00;5002349;28;20215;-60
2023/09/29 09:29:47;;;;;;;8.65;5.05;;;23.70;99.90;;;-141.84;51.54;22342.91;4988239;28;20258;-61
2023/09/29 09:32:16;;;;;;;5.72;4.40;;;23.70;99.90;;;-141.84;51.83;22346.97;4987329;28;20587;-62
2023/09/29 09:34:45;;;;;;;5.18;4.68;;;23.70;99.90;;;-141.84;51.16;22389.69;4972747;28;20263;-59
2023/09/29 09:37:13;;;;;;;6.03;4.53;;;23.70;99.90;;;-141.84;51.78;22371.38;4963470;28;20263;-59
2023/09/29 09:39:45;;;;;;;5.55;4.70;;;23.70;99.90;;;-141.84;52.25;22312.41;4966991;28;20287;-59
2023/09/29 09:42:14;;;;;;;4.47;4.07;;;23.60;99.90;;;-141.84;52.87;22271.72;4985277;28;20254;-62
2023/09/29 09:44:43;;;;;;;5.75;4.50;;;23.50;99.90;;;-141.84;52.82;22224.97;4985664;28;20231;-64
2023/09/29 09:47:14;;;;;;;6.18;4.70;;;23.40;99.90;;;-141.84;53.10;22235.13;4982255;28;20607;-62
2023/09/29 09:49:49;;;;;;;5.95;4.38;;;23.30;99.90;;;-141.84;53.15;22202.59;4993028;28;20234;-59
2023/09/29 09:52:25;;;;;;;5.80;5.20;;;23.20;99.90;;;-141.84;53.63;22176.16;5005521;28;20309;-62
2023/09/29 09:54:55;;;;;;;4.80;4.30;;;23.20;99.90;;;-141.84;53.75;22202.59;4997994;28;20292;-60
2023/09/29 09:57:31;;;;;;;6.82;4.47;;;23.20;99.90;;;-141.84;53.42;22204.63;4987481;28;20235;-61
2023/09/29 10:00:08;;;;;;;5.70;4.43;;;23.10;99.90;;;-141.84;52.73;22202.59;4985828;28;20781;-65
2023/09/29 10:02:41;;;;;;;5.57;4.18;;;23.10;99.90;;;-141.84;52.49;22233.09;4986107;28;20257;-65
2023/09/29 10:05:17;;;;;;;4.85;4.32;;;23.30;99.90;;;-141.84;52.73;22314.44;4978367;28;20486;-65
2023/09/29 10:07:46;;;;;;;5.05;4.28;;;23.40;99.90;;;-141.84;52.29;22336.81;4985239;28;20474;-64
2023/09/29 10:10:26;;;;;;;5.28;4.75;;;23.40;99.90;;;-141.84;52.11;22306.31;4985562;28;20250;-61
2023/09/29 10:12:55;;;;;;;6.95;4.57;;;23.50;99.90;;;-141.84;52.16;22340.88;4977391;28;20237;-60
2023/09/29 10:15:29;;;;;;;4.90;4.47;;;23.60;99.90;;;-141.84;51.68;22381.56;4985849;28;20235;-60
2023/09/29 10:17:58;;;;;;;6.93;4.60;;;23.70;99.90;;;-141.84;51.42;22405.97;4985854;28;20258;-61